Terminal Aerodrome Forecast
Issued by NWS

Home | Current Version | Previous Version | Text Only | Print | Product List | Glossary On
Versions: 1 2 3 4 5 6 7 8 9 10 11 12 13 14 15 16 17 18 19 20 21 22 23
000
FTUS43 KICT 172045 AAA
TAFCNU
TAF AMD
KCNU 172045Z 1721/1818 12010KT P6SM VCSH SCT020 OVC080
      TEMPO 1721/1724 6SM SHRA OVC020
     FM180000 11008KT P6SM VCTS BKN035CB
     FM180900 13007KT 6SM BR VCTS BKN015CB
     FM181200 16007KT P6SM OVC025=

USA.gov is the U.S. government's official web portal to all federal, state and local government web resources and services.